createdAt,value
2022-11-16T00:00:49.254Z,10.48
2022-11-16T00:01:49.296Z,10.56
2022-11-16T00:02:49.240Z,10.54
2022-11-16T00:03:49.223Z,10.61
2022-11-16T00:04:49.370Z,10.72
2022-11-16T00:05:49.197Z,10.67
2022-11-16T00:06:49.274Z,10.74
2022-11-16T00:07:49.186Z,10.76
2022-11-16T00:08:49.194Z,10.71
2022-11-16T00:09:49.180Z,10.71
2022-11-16T00:10:49.195Z,10.75
2022-11-16T00:11:49.129Z,10.71
2022-11-16T00:12:49.122Z,10.76
2022-11-16T00:13:49.117Z,10.69
2022-11-16T00:14:49.119Z,10.74
2022-11-16T00:15:49.141Z,10.74
2022-11-16T00:16:49.080Z,10.69
2022-11-16T00:17:49.124Z,10.72
2022-11-16T00:18:49.096Z,10.72
2022-11-16T00:19:49.039Z,10.74
2022-11-16T00:20:49.051Z,10.75
2022-11-16T00:21:49.084Z,10.68
2022-11-16T00:22:49.011Z,10.71
2022-11-16T00:23:49.013Z,10.64
2022-11-16T00:24:49.034Z,10.59
2022-11-16T00:25:48.991Z,10.42
2022-11-16T00:26:48.973Z,10.35
2022-11-16T00:27:48.979Z,10.42
2022-11-16T00:28:48.940Z,10.44
2022-11-16T00:29:48.987Z,10.41
2022-11-16T00:30:48.925Z,10.33
2022-11-16T00:31:48.909Z,10.22
2022-11-16T00:32:48.960Z,10.23
2022-11-16T00:33:48.930Z,10.19
2022-11-16T00:34:48.873Z,10.19
2022-11-16T00:35:48.922Z,10.34
2022-11-16T00:36:48.852Z,10.25
2022-11-16T00:37:48.838Z,10.31
2022-11-16T00:38:48.836Z,10.31
2022-11-16T00:39:48.850Z,10.31
2022-11-16T00:40:48.859Z,10.33
2022-11-16T00:41:48.883Z,10.37
2022-11-16T00:42:48.792Z,10.37
2022-11-16T00:43:48.778Z,10.40
2022-11-16T00:44:48.790Z,10.44
2022-11-16T00:45:48.751Z,10.40
2022-11-16T00:46:48.799Z,10.35
2022-11-16T00:47:48.771Z,10.30
2022-11-16T00:48:48.717Z,10.25
2022-11-16T00:49:48.713Z,10.26
2022-11-16T00:50:48.712Z,10.26
2022-11-16T00:51:48.685Z,10.26
2022-11-16T00:52:48.736Z,10.13
2022-11-16T00:53:48.735Z,10.10
2022-11-16T00:54:48.666Z,10.01
2022-11-16T00:55:48.652Z,10.02
2022-11-16T00:56:48.648Z,10.12
2022-11-16T00:57:48.642Z,10.02
2022-11-16T00:58:48.663Z,10.15
2022-11-16T00:59:48.597Z,10.05
2022-11-16T01:00:48.604Z,10.12
2022-11-16T01:01:48.666Z,10.17
2022-11-16T01:02:48.563Z,10.17
2022-11-16T01:03:48.559Z,10.12
2022-11-16T01:04:48.620Z,10.19
2022-11-16T01:05:48.529Z,10.13
2022-11-16T01:06:48.602Z,10.22
2022-11-16T01:07:48.516Z,10.34
2022-11-16T01:08:48.501Z,10.30
2022-11-16T01:09:48.633Z,10.28
2022-11-16T01:10:48.476Z,10.28
2022-11-16T01:11:48.470Z,10.28
2022-11-16T01:12:48.474Z,10.35
2022-11-16T01:13:48.458Z,10.33
2022-11-16T01:14:48.440Z,10.33
2022-11-16T01:15:48.478Z,10.25
2022-11-16T01:16:48.415Z,10.17
2022-11-16T01:17:48.452Z,10.19
2022-11-16T01:18:48.461Z,10.25
2022-11-16T01:19:48.399Z,10.25
2022-11-16T01:20:48.380Z,10.20
2022-11-16T01:21:48.368Z,10.19
2022-11-16T01:22:48.388Z,10.10
2022-11-16T01:23:48.340Z,10.15
2022-11-16T01:24:48.334Z,10.15
2022-11-16T01:25:48.354Z,10.20
2022-11-16T01:26:48.300Z,10.25
2022-11-16T01:27:48.324Z,10.23
2022-11-16T01:28:48.331Z,10.15
2022-11-16T01:29:48.314Z,10.23
2022-11-16T01:30:48.345Z,10.16
2022-11-16T01:31:48.345Z,10.20
2022-11-16T01:32:48.251Z,10.04
2022-11-16T01:33:48.249Z,10.09
2022-11-16T01:34:48.257Z,9.98
2022-11-16T01:35:48.217Z,9.87
2022-11-16T01:36:48.205Z,9.91
2022-11-16T01:37:48.230Z,9.86
2022-11-16T01:38:48.204Z,9.83
2022-11-16T01:39:48.157Z,9.86
2022-11-16T01:40:48.142Z,9.84
2022-11-16T01:41:48.199Z,9.84
2022-11-16T01:42:48.136Z,9.83
2022-11-16T01:43:48.182Z,9.87
2022-11-16T01:44:48.121Z,9.79
2022-11-16T01:45:48.135Z,9.84
2022-11-16T01:46:48.165Z,9.89
2022-11-16T01:47:48.074Z,9.92
2022-11-16T01:48:48.134Z,9.84
2022-11-16T01:49:48.091Z,9.89
2022-11-16T01:50:48.034Z,9.87
2022-11-16T01:51:48.031Z,9.89
2022-11-16T01:52:48.058Z,9.97
2022-11-16T01:53:48.010Z,9.97
2022-11-16T01:54:48.014Z,9.89
2022-11-16T01:55:48.029Z,9.87
2022-11-16T01:56:47.968Z,9.72
2022-11-16T01:57:48.010Z,9.55
2022-11-16T01:58:47.948Z,9.59
2022-11-16T01:59:47.948Z,9.58
2022-11-16T02:00:47.992Z,9.62
2022-11-16T02:01:47.949Z,9.48
2022-11-16T02:02:47.961Z,9.48
2022-11-16T02:03:47.940Z,9.48
2022-11-16T02:04:47.884Z,9.51
2022-11-16T02:05:47.932Z,9.44
2022-11-16T02:06:47.944Z,9.36
2022-11-16T02:07:47.874Z,9.28
2022-11-16T02:08:47.859Z,9.28
2022-11-16T02:09:47.829Z,9.28
2022-11-16T02:10:47.850Z,9.32
2022-11-16T02:11:47.879Z,9.29
2022-11-16T02:12:47.799Z,9.16
2022-11-16T02:13:47.783Z,9.28
2022-11-16T02:14:47.789Z,9.28
2022-11-16T02:15:47.762Z,9.41
2022-11-16T02:16:47.755Z,9.39
2022-11-16T02:17:47.803Z,9.43
2022-11-16T02:18:47.730Z,9.46
2022-11-16T02:19:47.738Z,9.48
2022-11-16T02:20:47.714Z,9.43
2022-11-16T02:21:47.743Z,9.51
2022-11-16T02:22:47.693Z,9.46
2022-11-16T02:23:47.693Z,9.44
2022-11-16T02:24:47.713Z,9.43
2022-11-16T02:25:47.773Z,9.62
2022-11-16T02:26:47.722Z,9.56
2022-11-16T02:27:47.631Z,9.59
2022-11-16T02:28:47.634Z,9.61
2022-11-16T02:29:47.623Z,9.51
2022-11-16T02:30:47.644Z,9.58
2022-11-16T02:31:47.604Z,9.55
2022-11-16T02:32:47.585Z,9.46
2022-11-16T02:33:47.587Z,9.44
2022-11-16T02:34:47.569Z,9.32
2022-11-16T02:35:47.587Z,9.21
2022-11-16T02:36:47.533Z,9.22
2022-11-16T02:37:47.620Z,9.26
2022-11-16T02:38:47.510Z,9.23
2022-11-16T02:39:47.543Z,9.23
2022-11-16T02:40:47.497Z,9.25
2022-11-16T02:41:47.475Z,9.32
2022-11-16T02:42:47.479Z,9.29
2022-11-16T02:43:47.455Z,9.21
2022-11-16T02:44:47.461Z,9.06
2022-11-16T02:45:47.478Z,8.88
2022-11-16T02:46:47.433Z,8.92
2022-11-16T02:47:47.419Z,8.92
2022-11-16T02:48:47.416Z,9.00
2022-11-16T02:49:47.455Z,9.08
2022-11-16T02:50:47.395Z,9.22
2022-11-16T02:51:47.415Z,9.22
2022-11-16T02:52:47.382Z,9.25
2022-11-16T02:53:47.393Z,9.06
2022-11-16T02:54:47.398Z,9.25
2022-11-16T02:55:47.329Z,9.28
2022-11-16T02:56:47.331Z,9.31
2022-11-16T02:57:47.315Z,9.29
2022-11-16T02:58:47.307Z,9.41
2022-11-16T02:59:47.284Z,9.46
2022-11-16T03:00:47.372Z,9.32
2022-11-16T03:01:47.273Z,9.34
2022-11-16T03:02:47.268Z,9.44
2022-11-16T03:03:47.245Z,9.48
2022-11-16T03:04:47.272Z,9.44
2022-11-16T03:05:47.284Z,9.50
2022-11-16T03:06:47.243Z,9.47
2022-11-16T03:07:47.201Z,9.43
2022-11-16T03:08:47.203Z,9.41
2022-11-16T03:09:47.217Z,9.44
2022-11-16T03:10:47.159Z,9.47
2022-11-16T03:11:47.149Z,9.46
2022-11-16T03:12:47.193Z,9.47
2022-11-16T03:13:47.132Z,9.48
2022-11-16T03:14:47.224Z,9.48
2022-11-16T03:15:47.118Z,9.62
2022-11-16T03:16:47.094Z,9.56
2022-11-16T03:17:47.144Z,9.62
2022-11-16T03:18:47.071Z,9.51
2022-11-16T03:19:47.062Z,9.43
2022-11-16T03:20:47.077Z,9.58
2022-11-16T03:21:47.070Z,9.43
2022-11-16T03:22:47.077Z,9.43
2022-11-16T03:23:47.019Z,9.25
2022-11-16T03:24:47.009Z,9.13
2022-11-16T03:25:47.003Z,9.16
2022-11-16T03:26:47.011Z,9.08
2022-11-16T03:27:47.044Z,9.18
2022-11-16T03:28:47.011Z,9.06
2022-11-16T03:29:46.952Z,8.97
2022-11-16T03:30:46.950Z,8.91
2022-11-16T03:31:46.958Z,8.97
2022-11-16T03:32:46.987Z,8.97
2022-11-16T03:33:46.920Z,8.88
2022-11-16T03:34:46.899Z,9.02
2022-11-16T03:35:46.944Z,9.06
2022-11-16T03:36:46.923Z,8.95
2022-11-16T03:37:46.890Z,8.95
2022-11-16T03:38:46.923Z,8.94
2022-11-16T03:39:46.862Z,8.87
2022-11-16T03:40:46.879Z,8.82
2022-11-16T03:41:46.874Z,8.84
2022-11-16T03:42:46.818Z,8.84
2022-11-16T03:43:46.805Z,8.92
2022-11-16T03:44:46.834Z,8.81
2022-11-16T03:45:46.806Z,8.84
2022-11-16T03:46:46.816Z,8.79
2022-11-16T03:47:46.769Z,8.71
2022-11-16T03:48:46.758Z,8.78
2022-11-16T03:49:46.780Z,8.81
2022-11-16T03:50:46.728Z,8.89
2022-11-16T03:51:46.749Z,8.85
2022-11-16T03:52:46.703Z,8.87
2022-11-16T03:53:46.770Z,8.95
2022-11-16T03:54:46.693Z,8.89
2022-11-16T03:55:49.786Z,8.79
2022-11-16T03:56:46.664Z,8.87
2022-11-16T03:57:46.674Z,8.74
2022-11-16T03:58:46.688Z,8.76
2022-11-16T03:59:46.633Z,8.78
2022-11-16T04:00:46.863Z,8.84
2022-11-16T04:01:46.604Z,8.92
2022-11-16T04:02:46.605Z,8.92
2022-11-16T04:03:46.612Z,9.00
2022-11-16T04:04:46.570Z,8.92
2022-11-16T04:05:46.628Z,8.97
2022-11-16T04:06:46.594Z,8.92
2022-11-16T04:07:46.542Z,8.89
2022-11-16T04:08:46.537Z,8.87
2022-11-16T04:09:46.550Z,8.97
2022-11-16T04:10:46.559Z,8.94
2022-11-16T04:11:46.498Z,8.91
2022-11-16T04:12:46.528Z,8.79
2022-11-16T04:13:46.476Z,8.85
2022-11-16T04:14:46.526Z,8.88
2022-11-16T04:15:46.453Z,8.87
2022-11-16T04:16:46.442Z,8.88
2022-11-16T04:17:46.539Z,8.67
2022-11-16T04:18:46.419Z,8.73
2022-11-16T04:19:46.421Z,8.67
2022-11-16T04:20:46.540Z,8.81
2022-11-16T04:21:46.568Z,8.71
2022-11-16T04:22:46.398Z,8.78
2022-11-16T04:23:46.376Z,8.71
2022-11-16T04:24:46.372Z,8.70
2022-11-16T04:25:46.385Z,8.64
2022-11-16T04:26:46.378Z,8.67
2022-11-16T04:27:46.352Z,8.71
2022-11-16T04:28:46.365Z,8.67
2022-11-16T04:29:46.299Z,8.70
2022-11-16T04:30:46.293Z,8.58
2022-11-16T04:31:46.282Z,8.37
2022-11-16T04:32:46.336Z,8.36
2022-11-16T04:33:46.307Z,8.42
2022-11-16T04:34:46.246Z,8.31
2022-11-16T04:35:46.233Z,8.31
2022-11-16T04:36:46.222Z,8.44
2022-11-16T04:37:46.222Z,8.44
2022-11-16T04:38:46.264Z,8.46
2022-11-16T04:39:46.190Z,8.53
2022-11-16T04:40:46.230Z,8.55
2022-11-16T04:41:46.233Z,8.67
2022-11-16T04:42:46.159Z,8.37
2022-11-16T04:43:46.182Z,8.38
2022-11-16T04:44:46.206Z,8.42
2022-11-16T04:45:46.128Z,8.45
2022-11-16T04:46:46.123Z,8.55
2022-11-16T04:47:46.153Z,8.53
2022-11-16T04:48:46.138Z,8.45
2022-11-16T04:49:46.138Z,8.45
2022-11-16T04:50:46.136Z,8.45
2022-11-16T04:51:46.062Z,8.41
2022-11-16T04:52:46.051Z,8.26
2022-11-16T04:53:46.044Z,8.42
2022-11-16T04:54:46.086Z,8.31
2022-11-16T04:55:46.025Z,8.30
2022-11-16T04:56:46.019Z,8.36
2022-11-16T04:57:46.014Z,8.44
2022-11-16T04:58:45.989Z,8.37
2022-11-16T04:59:45.975Z,8.26
2022-11-16T05:00:46.034Z,8.31
2022-11-16T05:01:46.017Z,8.16
2022-11-16T05:02:45.938Z,8.31
2022-11-16T05:03:45.953Z,8.28
2022-11-16T05:04:45.929Z,8.18
2022-11-16T05:05:45.909Z,8.16
2022-11-16T05:06:45.962Z,8.23
2022-11-16T05:07:45.883Z,8.30
2022-11-16T05:08:45.894Z,8.48
2022-11-16T05:09:45.866Z,8.60
2022-11-16T05:10:45.851Z,8.63
2022-11-16T05:11:45.843Z,8.73
2022-11-16T05:12:45.897Z,8.73
2022-11-16T05:13:45.836Z,8.70
2022-11-16T05:14:45.844Z,8.49
2022-11-16T05:15:45.796Z,8.53
2022-11-16T05:16:45.843Z,8.45
2022-11-16T05:17:45.774Z,8.38
2022-11-16T05:18:45.775Z,8.33
2022-11-16T05:19:45.752Z,8.30
2022-11-16T05:20:45.762Z,8.31
2022-11-16T05:21:45.796Z,8.19
2022-11-16T05:22:45.727Z,8.15
2022-11-16T05:23:45.711Z,8.16
2022-11-16T05:24:45.708Z,8.12
2022-11-16T05:25:45.691Z,8.15
2022-11-16T05:26:45.685Z,8.13
2022-11-16T05:27:45.732Z,8.08
2022-11-16T05:28:45.655Z,8.15
2022-11-16T05:29:45.669Z,8.03
2022-11-16T05:30:45.644Z,8.16
2022-11-16T05:31:45.623Z,8.13
2022-11-16T05:32:45.610Z,8.16
2022-11-16T05:33:45.663Z,8.28
2022-11-16T05:34:45.681Z,8.18
2022-11-16T05:35:45.586Z,8.13
2022-11-16T05:36:45.578Z,8.20
2022-11-16T05:37:45.599Z,8.24
2022-11-16T05:38:45.544Z,8.33
2022-11-16T05:39:45.598Z,8.27
2022-11-16T05:40:45.525Z,8.36
2022-11-16T05:41:45.528Z,8.41
2022-11-16T05:42:45.528Z,8.34
2022-11-16T05:43:45.487Z,8.36
2022-11-16T05:44:45.483Z,8.36
2022-11-16T05:45:45.540Z,8.30
2022-11-16T05:46:45.459Z,8.28
2022-11-16T05:47:45.450Z,8.30
2022-11-16T05:48:45.478Z,8.33
2022-11-16T05:49:45.424Z,8.30
2022-11-16T05:50:45.482Z,8.41
2022-11-16T05:51:45.403Z,8.52
2022-11-16T05:52:45.392Z,8.64
2022-11-16T05:53:45.442Z,8.55
2022-11-16T05:54:45.403Z,8.38
2022-11-16T05:55:45.408Z,8.51
2022-11-16T05:56:45.353Z,8.52
2022-11-16T05:57:45.359Z,8.61
2022-11-16T05:58:45.384Z,8.74
2022-11-16T05:59:45.340Z,8.70
2022-11-16T06:00:45.334Z,8.76
2022-11-16T06:01:45.320Z,8.67
2022-11-16T06:02:45.331Z,8.71
2022-11-16T06:03:45.270Z,8.74
2022-11-16T06:04:45.333Z,8.49
2022-11-16T06:05:45.265Z,8.60
2022-11-16T06:06:45.250Z,8.64
2022-11-16T06:07:45.227Z,8.73
2022-11-16T06:08:45.225Z,8.84
2022-11-16T06:09:45.317Z,8.79
2022-11-16T06:10:45.247Z,8.84
2022-11-16T06:11:45.197Z,8.92
2022-11-16T06:12:45.245Z,8.89
2022-11-16T06:13:45.159Z,8.70
2022-11-16T06:14:45.163Z,8.67
2022-11-16T06:15:50.269Z,8.52
2022-11-16T06:16:46.426Z,8.51
2022-11-16T06:17:45.137Z,8.67
2022-11-16T06:18:45.179Z,8.66
2022-11-16T06:19:45.094Z,8.82
2022-11-16T06:20:45.085Z,8.66
2022-11-16T06:21:45.073Z,8.64
2022-11-16T06:22:45.076Z,8.69
2022-11-16T06:23:45.052Z,8.71
2022-11-16T06:24:45.113Z,8.74
2022-11-16T06:25:45.099Z,8.60
2022-11-16T06:26:45.019Z,8.56
2022-11-16T06:27:45.016Z,8.53
2022-11-16T06:28:45.008Z,8.53
2022-11-16T06:29:44.989Z,8.60
2022-11-16T06:30:44.987Z,8.64
2022-11-16T06:31:45.041Z,8.74
2022-11-16T06:32:44.987Z,8.55
2022-11-16T06:33:44.952Z,8.56
2022-11-16T06:34:44.942Z,8.45
2022-11-16T06:35:44.919Z,8.44
2022-11-16T06:36:44.922Z,8.27
2022-11-16T06:37:44.968Z,8.28
2022-11-16T06:38:44.890Z,8.38
2022-11-16T06:39:44.893Z,8.42
2022-11-16T06:40:44.884Z,8.41
2022-11-16T06:41:44.858Z,8.44
2022-11-16T06:42:44.870Z,8.41
2022-11-16T06:43:44.894Z,8.44
2022-11-16T06:44:44.825Z,8.36
2022-11-16T06:45:44.827Z,8.28
2022-11-16T06:46:44.861Z,8.30
2022-11-16T06:47:44.788Z,8.30
2022-11-16T06:48:45.030Z,8.36
2022-11-16T06:49:44.776Z,8.33
2022-11-16T06:50:44.762Z,8.38
2022-11-16T06:51:44.758Z,8.45
2022-11-16T06:52:44.814Z,8.46
2022-11-16T06:53:44.726Z,8.38
2022-11-16T06:54:44.732Z,8.41
2022-11-16T06:55:44.700Z,8.30
2022-11-16T06:56:44.692Z,8.18
2022-11-16T06:57:44.743Z,8.19
2022-11-16T06:58:44.667Z,8.31
2022-11-16T06:59:44.655Z,8.41
2022-11-16T07:00:44.735Z,8.55
2022-11-16T07:01:44.670Z,8.71
2022-11-16T07:02:44.628Z,8.66
2022-11-16T07:03:44.621Z,8.56
2022-11-16T07:04:44.719Z,8.73
2022-11-16T07:05:44.596Z,8.78
2022-11-16T07:06:44.663Z,8.87
2022-11-16T07:07:44.573Z,8.94
2022-11-16T07:08:44.567Z,8.87
2022-11-16T07:09:44.558Z,8.89
2022-11-16T07:10:44.541Z,9.08
2022-11-16T07:11:44.524Z,9.08
2022-11-16T07:12:44.587Z,9.08
2022-11-16T07:13:44.513Z,9.04
2022-11-16T07:14:44.502Z,9.00
2022-11-16T07:15:44.483Z,9.00
2022-11-16T07:16:44.470Z,9.08
2022-11-16T07:17:44.496Z,9.03
2022-11-16T07:18:44.516Z,9.02
2022-11-16T07:19:44.461Z,8.94
2022-11-16T07:20:44.498Z,8.92
2022-11-16T07:21:44.470Z,8.91
2022-11-16T07:22:44.448Z,8.84
2022-11-16T07:23:44.409Z,8.84
2022-11-16T07:24:44.433Z,8.76
2022-11-16T07:25:44.370Z,8.85
2022-11-16T07:26:44.373Z,8.79
2022-11-16T07:27:44.350Z,8.70
2022-11-16T07:28:48.083Z,8.64
2022-11-16T07:29:44.327Z,8.49
2022-11-16T07:30:44.330Z,8.56
2022-11-16T07:31:44.334Z,8.73
2022-11-16T07:32:44.303Z,8.73
2022-11-16T07:33:44.321Z,8.71
2022-11-16T07:34:44.338Z,8.70
2022-11-16T07:35:44.265Z,8.73
2022-11-16T07:36:44.331Z,8.95
2022-11-16T07:37:44.246Z,9.02
2022-11-16T07:38:44.294Z,9.08
2022-11-16T07:39:44.226Z,8.94
2022-11-16T07:40:44.209Z,9.00
2022-11-16T07:41:44.203Z,9.11
2022-11-16T07:42:44.238Z,9.23
2022-11-16T07:43:48.526Z,9.22
2022-11-16T07:44:44.207Z,9.25
2022-11-16T07:45:44.151Z,9.29
2022-11-16T07:46:47.140Z,9.36
2022-11-16T07:47:44.260Z,9.44
2022-11-16T07:48:44.120Z,9.58
2022-11-16T07:49:44.125Z,9.51
2022-11-16T07:50:44.098Z,9.48
2022-11-16T07:51:44.142Z,9.48
2022-11-16T07:52:44.090Z,9.48
2022-11-16T07:53:44.092Z,9.54
2022-11-16T07:54:44.055Z,9.58
2022-11-16T07:55:44.114Z,9.62
2022-11-16T07:56:44.056Z,9.72
2022-11-16T07:57:46.812Z,9.59
2022-11-16T07:58:44.014Z,9.61
2022-11-16T07:59:44.007Z,9.62
2022-11-16T08:00:43.987Z,9.59
2022-11-16T08:01:44.044Z,9.69
2022-11-16T08:02:44.014Z,9.74
2022-11-16T08:03:43.953Z,9.73
2022-11-16T08:04:43.954Z,9.65
2022-11-16T08:05:43.931Z,9.73
2022-11-16T08:06:43.924Z,9.68
2022-11-16T08:07:43.968Z,9.68
2022-11-16T08:08:44.013Z,9.79
2022-11-16T08:09:43.964Z,9.80
2022-11-16T08:10:43.897Z,9.56
2022-11-16T08:11:43.865Z,9.64
2022-11-16T08:12:43.874Z,9.58
2022-11-16T08:13:43.900Z,9.51
2022-11-16T08:14:43.835Z,9.58
2022-11-16T08:15:43.825Z,9.55
2022-11-16T08:16:43.831Z,9.46
2022-11-16T08:17:43.846Z,9.41
2022-11-16T08:18:43.803Z,9.48
2022-11-16T08:19:43.791Z,9.61
2022-11-16T08:20:43.770Z,9.64
2022-11-16T08:21:43.821Z,9.55
2022-11-16T08:22:43.791Z,9.73
2022-11-16T08:23:43.737Z,9.66
2022-11-16T08:24:43.848Z,9.76
2022-11-16T08:25:43.712Z,9.84
2022-11-16T08:26:43.751Z,9.89
2022-11-16T08:27:43.699Z,9.76
2022-11-16T08:28:43.690Z,9.69
2022-11-16T08:29:43.671Z,9.62
2022-11-16T08:30:43.715Z,9.59
2022-11-16T08:31:43.689Z,9.58
2022-11-16T08:32:43.636Z,9.59
2022-11-16T08:33:43.647Z,9.59
2022-11-16T08:34:43.661Z,9.66
2022-11-16T08:35:43.663Z,9.72
2022-11-16T08:36:43.625Z,9.66
2022-11-16T08:37:43.590Z,9.74
2022-11-16T08:38:43.581Z,9.84
2022-11-16T08:39:43.577Z,9.65
2022-11-16T08:40:43.614Z,9.76
2022-11-16T08:41:43.551Z,9.55
2022-11-16T08:42:44.090Z,9.76
2022-11-16T08:43:43.562Z,9.72
2022-11-16T08:44:43.508Z,9.69
2022-11-16T08:45:43.540Z,9.66
2022-11-16T08:46:43.531Z,9.47
2022-11-16T08:47:43.481Z,9.56
2022-11-16T08:48:43.460Z,9.58
2022-11-16T08:49:49.256Z,9.72
2022-11-16T08:51:15.444Z,9.80
2022-11-16T08:51:44.435Z,9.73
2022-11-16T08:52:43.421Z,9.74
2022-11-16T08:53:43.456Z,9.61
2022-11-16T08:54:43.399Z,9.56
2022-11-16T08:55:43.439Z,9.48
2022-11-16T08:56:43.390Z,9.62
2022-11-16T08:57:43.364Z,9.73
2022-11-16T08:58:43.375Z,9.59
2022-11-16T08:59:43.352Z,9.56
2022-11-16T09:00:43.375Z,9.66
2022-11-16T09:01:43.411Z,9.73
2022-11-16T09:02:43.309Z,9.74
2022-11-16T09:03:43.336Z,9.80
2022-11-16T09:04:43.293Z,9.82
2022-11-16T09:05:43.320Z,9.82
2022-11-16T09:06:43.310Z,9.84
2022-11-16T09:07:43.260Z,9.99
2022-11-16T09:08:43.257Z,9.98
2022-11-16T09:09:43.229Z,10.01
2022-11-16T09:10:43.228Z,10.12
2022-11-16T09:11:43.255Z,10.04
2022-11-16T09:12:43.265Z,10.13
2022-11-16T09:13:43.197Z,10.15
2022-11-16T09:14:43.188Z,10.13
2022-11-16T09:15:43.218Z,9.98
2022-11-16T09:16:43.164Z,10.09
2022-11-16T09:17:43.158Z,10.04
2022-11-16T09:18:43.136Z,9.99
2022-11-16T09:19:43.183Z,10.05
2022-11-16T09:20:43.126Z,9.92
2022-11-16T09:21:43.102Z,9.98
2022-11-16T09:22:43.092Z,9.87
2022-11-16T09:23:43.098Z,10.07
2022-11-16T09:24:43.081Z,10.15
2022-11-16T09:25:43.120Z,10.02
2022-11-16T09:26:43.135Z,9.99
2022-11-16T09:27:43.036Z,10.15
2022-11-16T09:28:43.056Z,10.30
2022-11-16T09:29:43.017Z,10.25
2022-11-16T09:30:43.018Z,10.01
2022-11-16T09:31:43.017Z,9.87
2022-11-16T09:32:43.030Z,9.95
2022-11-16T09:33:42.981Z,9.86
2022-11-16T09:34:42.966Z,10.07
2022-11-16T09:35:43.305Z,10.10
2022-11-16T09:36:42.989Z,10.20
2022-11-16T09:37:42.927Z,10.26
2022-11-16T09:39:19.068Z,10.33
2022-11-16T09:39:43.923Z,10.34
2022-11-16T09:40:42.903Z,10.40
2022-11-16T09:41:42.887Z,10.33
2022-11-16T09:42:42.926Z,10.35
2022-11-16T09:43:46.177Z,10.44
2022-11-16T09:44:42.930Z,10.51
2022-11-16T09:45:42.844Z,10.48
2022-11-16T09:46:42.839Z,10.48
2022-11-16T09:47:42.857Z,10.53
2022-11-16T09:48:42.807Z,10.49
2022-11-16T09:49:42.801Z,10.57
2022-11-16T09:50:42.794Z,10.38
2022-11-16T09:51:42.837Z,10.26
2022-11-16T09:52:42.791Z,10.26
2022-11-16T09:53:42.759Z,10.34
2022-11-16T09:54:42.792Z,10.28
2022-11-16T09:55:42.738Z,10.26
2022-11-16T09:56:42.722Z,10.30
2022-11-16T09:57:42.720Z,10.31
2022-11-16T09:58:42.742Z,10.35
2022-11-16T09:59:42.742Z,10.46
2022-11-16T10:00:42.827Z,10.35
2022-11-16T10:01:42.667Z,10.49
2022-11-16T10:02:42.654Z,10.59
2022-11-16T10:03:42.679Z,10.67
2022-11-16T10:04:42.692Z,10.76
2022-11-16T10:05:42.625Z,10.60
2022-11-16T10:06:42.607Z,10.71
2022-11-16T10:07:42.609Z,10.41
2022-11-16T10:08:42.590Z,10.42
2022-11-16T10:09:42.620Z,10.40
2022-11-16T10:10:42.608Z,10.35
2022-11-16T10:11:42.559Z,10.49
2022-11-16T10:12:42.549Z,10.57
2022-11-16T10:13:42.579Z,10.54
2022-11-16T10:14:42.527Z,10.67
2022-11-16T10:15:42.531Z,10.76
2022-11-16T10:16:42.608Z,10.86
2022-11-16T10:17:42.541Z,10.90
2022-11-16T10:18:42.499Z,10.68
2022-11-16T10:19:42.484Z,10.74
2022-11-16T10:20:42.464Z,10.75
2022-11-16T10:21:42.459Z,10.54
2022-11-16T10:22:42.481Z,10.49
2022-11-16T10:23:42.423Z,10.60
2022-11-16T10:24:42.426Z,10.71
2022-11-16T10:25:42.404Z,10.61
2022-11-16T10:26:42.442Z,10.53
2022-11-16T10:27:42.395Z,10.64
2022-11-16T10:28:42.418Z,10.67
2022-11-16T10:29:42.360Z,10.53
2022-11-16T10:30:42.348Z,10.44
2022-11-16T10:31:42.379Z,10.59
2022-11-16T10:32:42.456Z,10.48
2022-11-16T10:33:42.316Z,10.59
2022-11-16T10:34:42.299Z,10.61
2022-11-16T10:35:42.360Z,10.72
2022-11-16T10:36:42.279Z,10.69
2022-11-16T10:37:42.272Z,10.84
2022-11-16T10:38:42.295Z,10.81
2022-11-16T10:39:42.250Z,10.82
2022-11-16T10:40:42.294Z,10.89
2022-11-16T10:41:42.233Z,10.96
2022-11-16T10:42:42.217Z,11.04
2022-11-16T10:43:42.213Z,11.14
2022-11-16T10:44:42.205Z,11.04
2022-11-16T10:45:42.228Z,11.14
2022-11-16T10:46:42.225Z,11.11
2022-11-16T10:47:42.169Z,11.19
2022-11-16T10:48:42.257Z,11.17
2022-11-16T10:49:42.147Z,11.19
2022-11-16T10:50:42.125Z,11.14
2022-11-16T10:51:42.162Z,11.17
2022-11-16T10:52:42.157Z,11.23
2022-11-16T10:53:42.124Z,11.14
2022-11-16T10:54:44.402Z,11.02
2022-11-16T10:55:42.076Z,11.08
2022-11-16T10:56:42.061Z,11.14
2022-11-16T10:57:42.106Z,11.10
2022-11-16T10:58:42.105Z,11.12
2022-11-16T10:59:42.042Z,11.07
2022-11-16T11:00:42.068Z,11.12
2022-11-16T11:01:42.012Z,11.22
2022-11-16T11:02:41.996Z,11.22
2022-11-16T11:03:41.982Z,11.22
2022-11-16T11:04:42.098Z,11.23
2022-11-16T11:05:42.051Z,11.18
2022-11-16T11:06:41.954Z,11.19
2022-11-16T11:07:42.004Z,11.07
2022-11-16T11:08:41.932Z,11.08
2022-11-16T11:09:41.920Z,11.08
2022-11-16T11:10:41.981Z,11.02
2022-11-16T11:11:41.897Z,11.14
2022-11-16T11:12:41.892Z,11.11
2022-11-16T11:13:41.886Z,11.05
2022-11-16T11:14:41.863Z,11.04
2022-11-16T11:15:41.919Z,11.14
2022-11-16T11:16:41.841Z,11.02
2022-11-16T11:17:41.840Z,11.08
2022-11-16T11:18:41.874Z,11.08
2022-11-16T11:19:41.809Z,10.87
2022-11-16T11:20:45.080Z,10.92
2022-11-16T11:21:41.866Z,10.96
2022-11-16T11:22:41.823Z,10.90
2022-11-16T11:23:41.768Z,11.10
2022-11-16T11:24:44.849Z,11.07
2022-11-16T11:25:41.792Z,11.14
2022-11-16T11:26:41.796Z,11.14
2022-11-16T11:27:41.727Z,11.17
2022-11-16T11:28:41.752Z,11.19
2022-11-16T11:29:41.715Z,11.22
2022-11-16T11:30:41.714Z,11.27
2022-11-16T11:31:41.674Z,11.27
2022-11-16T11:32:41.727Z,11.27
2022-11-16T11:33:41.696Z,11.26
2022-11-16T11:34:41.646Z,11.27
2022-11-16T11:35:41.687Z,11.22
2022-11-16T11:36:41.652Z,11.17
2022-11-16T11:37:41.610Z,11.12
2022-11-16T11:38:41.611Z,11.11
2022-11-16T11:39:41.663Z,10.93
2022-11-16T11:40:41.618Z,10.76
2022-11-16T11:41:41.615Z,10.68
2022-11-16T11:42:41.557Z,10.74
2022-11-16T11:43:41.607Z,10.81
2022-11-16T11:44:41.554Z,10.59
2022-11-16T11:45:41.522Z,10.71
2022-11-16T11:47:28.484Z,10.84
2022-11-16T11:47:58.919Z,10.84
2022-11-16T11:48:42.501Z,10.75
2022-11-16T11:49:41.477Z,10.67
2022-11-16T11:50:41.474Z,10.72
2022-11-16T11:51:41.503Z,10.75
2022-11-16T11:52:41.563Z,10.67
2022-11-16T11:53:41.448Z,10.72
2022-11-16T11:54:45.679Z,10.71
2022-11-16T11:55:41.432Z,10.74
2022-11-16T11:56:41.446Z,10.69
2022-11-16T11:57:41.392Z,10.63
2022-11-16T11:58:41.398Z,10.68
2022-11-16T11:59:41.367Z,10.78
2022-11-16T12:00:41.357Z,10.67
2022-11-16T12:01:41.346Z,10.74
2022-11-16T12:02:41.467Z,10.81
2022-11-16T12:03:41.327Z,10.89
2022-11-16T12:04:41.365Z,10.87
2022-11-16T12:05:41.304Z,10.72
2022-11-16T12:06:44.053Z,10.75
2022-11-16T12:07:41.320Z,10.69
2022-11-16T12:08:41.398Z,10.67
2022-11-16T12:09:41.271Z,10.76
2022-11-16T12:10:41.301Z,10.78
2022-11-16T12:11:41.283Z,10.69
2022-11-16T12:12:41.270Z,10.78
2022-11-16T12:13:41.228Z,10.84
2022-11-16T12:14:41.228Z,10.90
2022-11-16T12:15:41.208Z,10.90
2022-11-16T12:16:41.225Z,10.97
2022-11-16T12:17:41.176Z,11.05
2022-11-16T12:18:41.157Z,11.04
2022-11-16T12:19:41.155Z,10.86
2022-11-16T12:20:41.177Z,10.86
2022-11-16T12:21:41.183Z,10.92
2022-11-16T12:22:41.128Z,10.90
2022-11-16T12:23:41.104Z,10.86
2022-11-16T12:24:41.216Z,10.94
2022-11-16T12:25:41.105Z,10.99
2022-11-16T12:26:41.081Z,11.08
2022-11-16T12:27:41.127Z,11.11
2022-11-16T12:28:41.049Z,11.12
2022-11-16T12:29:41.040Z,11.19
2022-11-16T12:30:41.025Z,11.27
2022-11-16T12:31:41.059Z,11.27
2022-11-16T12:32:41.016Z,11.23
2022-11-16T12:33:41.037Z,11.25
2022-11-16T12:34:41.029Z,11.30
2022-11-16T12:35:40.969Z,11.22
2022-11-16T12:36:40.961Z,11.25
2022-11-16T12:37:40.951Z,11.25
2022-11-16T12:38:40.943Z,11.22
2022-11-16T12:39:41.016Z,11.15
2022-11-16T12:40:41.024Z,11.18
2022-11-16T12:41:40.953Z,11.22
2022-11-16T12:42:40.899Z,11.22
2022-11-16T12:43:40.890Z,11.26
2022-11-16T12:44:40.923Z,11.33
2022-11-16T12:45:40.884Z,11.23
2022-11-16T12:46:40.884Z,11.25
2022-11-16T12:47:40.887Z,11.29
2022-11-16T12:48:40.837Z,11.30
2022-11-16T12:49:40.878Z,11.19
2022-11-16T12:50:40.812Z,11.18
2022-11-16T12:51:40.795Z,11.23
2022-11-16T12:52:40.831Z,11.18
2022-11-16T12:53:40.770Z,11.29
2022-11-16T12:54:57.713Z,11.32
2022-11-16T12:55:41.761Z,11.17
2022-11-16T12:56:44.622Z,11.22
2022-11-16T12:57:41.727Z,11.19
2022-11-16T12:58:40.794Z,11.19
2022-11-16T12:59:40.765Z,11.12
2022-11-16T13:00:40.739Z,11.02
2022-11-16T13:01:40.732Z,11.10
2022-11-16T13:02:40.694Z,10.93
2022-11-16T13:03:40.707Z,10.93
2022-11-16T13:04:40.659Z,10.97
2022-11-16T13:05:40.658Z,10.97
2022-11-16T13:06:40.672Z,11.05
2022-11-16T13:07:40.648Z,11.11